sensor_id;sensor_type;location;lat;lon;timestamp;pressure;altitude;pressure_sealevel;temperature;humidity
29467;BME280;60968;37.490;-122.288;2023-02-21T00:01:49;99010.22;;;17.81;40.52
29467;BME280;60968;37.490;-122.288;2023-02-21T00:04:50;99003.53;;;17.74;41.75
29467;BME280;60968;37.490;-122.288;2023-02-21T00:07:51;99007.59;;;17.81;41.27
29467;BME280;60968;37.490;-122.288;2023-02-21T00:10:52;99003.84;;;17.87;41.15
29467;BME280;60968;37.490;-122.288;2023-02-21T00:13:52;98995.94;;;17.87;41.52
29467;BME280;60968;37.490;-122.288;2023-02-21T00:16:54;98997.41;;;17.74;42.45
29467;BME280;60968;37.490;-122.288;2023-02-21T00:19:55;98992.88;;;17.57;43.47
29467;BME280;60968;37.490;-122.288;2023-02-21T00:22:57;98990.91;;;17.41;43.21
29467;BME280;60968;37.490;-122.288;2023-02-21T00:25:58;98985.69;;;17.40;43.14
29467;BME280;60968;37.490;-122.288;2023-02-21T00:28:59;98991.34;;;17.30;43.27
29467;BME280;60968;37.490;-122.288;2023-02-21T00:32:00;98984.56;;;17.25;45.65
29467;BME280;60968;37.490;-122.288;2023-02-21T00:35:00;98979.72;;;17.14;46.99
29467;BME280;60968;37.490;-122.288;2023-02-21T00:38:02;98976.69;;;17.03;46.16
29467;BME280;60968;37.490;-122.288;2023-02-21T00:41:03;98980.63;;;16.92;47.90
29467;BME280;60968;37.490;-122.288;2023-02-21T00:44:10;98989.78;;;16.82;45.38
29467;BME280;60968;37.490;-122.288;2023-02-21T00:47:10;98993.56;;;16.75;44.44
29467;BME280;60968;37.490;-122.288;2023-02-21T00:50:19;98994.13;;;16.61;46.40
29467;BME280;60968;37.490;-122.288;2023-02-21T00:53:23;98997.38;;;16.44;47.71
29467;BME280;60968;37.490;-122.288;2023-02-21T00:56:24;99002.38;;;16.28;49.28
29467;BME280;60968;37.490;-122.288;2023-02-21T00:59:29;99013.47;;;16.12;50.12
29467;BME280;60968;37.490;-122.288;2023-02-21T01:02:29;99014.97;;;15.94;49.62
29467;BME280;60968;37.490;-122.288;2023-02-21T01:05:35;99024.06;;;15.86;48.29
29467;BME280;60968;37.490;-122.288;2023-02-21T01:08:41;99016.88;;;15.91;46.51
29467;BME280;60968;37.490;-122.288;2023-02-21T01:11:42;99018.56;;;15.92;47.60
29467;BME280;60968;37.490;-122.288;2023-02-21T01:14:43;99011.81;;;15.85;47.16
29467;BME280;60968;37.490;-122.288;2023-02-21T01:17:43;99009.41;;;15.78;48.96
29467;BME280;60968;37.490;-122.288;2023-02-21T01:20:44;99010.78;;;15.64;49.66
29467;BME280;60968;37.490;-122.288;2023-02-21T01:23:45;99004.38;;;15.47;50.68
29467;BME280;60968;37.490;-122.288;2023-02-21T01:26:49;98998.75;;;15.31;51.63
29467;BME280;60968;37.490;-122.288;2023-02-21T01:29:50;99008.09;;;15.13;52.21
29467;BME280;60968;37.490;-122.288;2023-02-21T01:32:51;99005.97;;;14.99;52.89
29467;BME280;60968;37.490;-122.288;2023-02-21T01:35:52;99006.19;;;14.91;53.78
29467;BME280;60968;37.490;-122.288;2023-02-21T01:38:53;98992.59;;;14.79;54.47
29467;BME280;60968;37.490;-122.288;2023-02-21T01:41:54;98989.50;;;14.66;55.94
29467;BME280;60968;37.490;-122.288;2023-02-21T01:48:20;98983.25;;;14.41;58.48
29467;BME280;60968;37.490;-122.288;2023-02-21T01:51:27;98986.03;;;14.35;59.38
29467;BME280;60968;37.490;-122.288;2023-02-21T01:54:35;98992.50;;;14.23;59.88
29467;BME280;60968;37.490;-122.288;2023-02-21T01:57:38;98983.22;;;14.12;60.87
29467;BME280;60968;37.490;-122.288;2023-02-21T02:00:43;98986.22;;;13.98;61.92
29467;BME280;60968;37.490;-122.288;2023-02-21T02:03:47;98996.19;;;13.85;63.06
29467;BME280;60968;37.490;-122.288;2023-02-21T02:06:49;99003.59;;;13.70;63.43
29467;BME280;60968;37.490;-122.288;2023-02-21T02:09:50;99001.31;;;13.57;64.73
29467;BME280;60968;37.490;-122.288;2023-02-21T02:13:25;99007.59;;;13.51;64.97
29467;BME280;60968;37.490;-122.288;2023-02-21T02:36:25;99004.28;;;13.77;64.00
29467;BME280;60968;37.490;-122.288;2023-02-21T02:39:42;99004.22;;;13.79;63.22
29467;BME280;60968;37.490;-122.288;2023-02-21T02:46:05;99000.97;;;14.02;61.26
29467;BME280;60968;37.490;-122.288;2023-02-21T02:49:13;99006.03;;;14.08;59.37
29467;BME280;60968;37.490;-122.288;2023-02-21T02:52:16;99004.09;;;14.15;58.48
29467;BME280;60968;37.490;-122.288;2023-02-21T02:55:25;98999.69;;;14.17;57.09
29467;BME280;60968;37.490;-122.288;2023-02-21T02:58:34;99000.63;;;14.14;56.77
29467;BME280;60968;37.490;-122.288;2023-02-21T03:11:21;98997.81;;;13.21;60.43
29467;BME280;60968;37.490;-122.288;2023-02-21T03:14:26;98993.09;;;13.01;61.33
29467;BME280;60968;37.490;-122.288;2023-02-21T03:17:32;99007.34;;;12.88;62.40
29467;BME280;60968;37.490;-122.288;2023-02-21T03:20:36;98989.25;;;12.80;63.35
29467;BME280;60968;37.490;-122.288;2023-02-21T03:23:38;98990.31;;;12.72;63.65
29467;BME280;60968;37.490;-122.288;2023-02-21T03:26:43;98986.13;;;12.64;62.76
29467;BME280;60968;37.490;-122.288;2023-02-21T03:29:46;98975.84;;;12.57;63.18
29467;BME280;60968;37.490;-122.288;2023-02-21T03:32:51;98982.88;;;12.55;63.29
29467;BME280;60968;37.490;-122.288;2023-02-21T03:35:53;98981.22;;;12.50;64.21
29467;BME280;60968;37.490;-122.288;2023-02-21T03:38:54;98992.66;;;12.45;64.59
29467;BME280;60968;37.490;-122.288;2023-02-21T03:41:54;98998.88;;;12.39;64.87
29467;BME280;60968;37.490;-122.288;2023-02-21T03:44:57;98992.16;;;12.27;65.42
29467;BME280;60968;37.490;-122.288;2023-02-21T03:47:59;98993.31;;;12.14;64.71
29467;BME280;60968;37.490;-122.288;2023-02-21T03:51:00;99001.38;;;12.03;64.41
29467;BME280;60968;37.490;-122.288;2023-02-21T03:54:01;98992.72;;;11.99;64.94
29467;BME280;60968;37.490;-122.288;2023-02-21T03:57:02;98990.16;;;11.98;64.57
29467;BME280;60968;37.490;-122.288;2023-02-21T04:00:03;98988.50;;;11.92;66.34
29467;BME280;60968;37.490;-122.288;2023-02-21T04:03:04;98973.75;;;11.91;66.36
29467;BME280;60968;37.490;-122.288;2023-02-21T04:06:05;98970.88;;;12.04;66.18
29467;BME280;60968;37.490;-122.288;2023-02-21T04:09:07;98964.81;;;12.03;68.07
29467;BME280;60968;37.490;-122.288;2023-02-21T04:12:08;98969.28;;;11.96;68.01
29467;BME280;60968;37.490;-122.288;2023-02-21T04:15:10;98969.25;;;11.98;68.21
29467;BME280;60968;37.490;-122.288;2023-02-21T04:18:11;98970.03;;;12.03;66.73
29467;BME280;60968;37.490;-122.288;2023-02-21T04:21:15;98960.41;;;12.05;64.03
29467;BME280;60968;37.490;-122.288;2023-02-21T04:24:16;98966.53;;;12.04;60.52
29467;BME280;60968;37.490;-122.288;2023-02-21T04:27:17;98960.19;;;12.16;59.00
29467;BME280;60968;37.490;-122.288;2023-02-21T04:30:18;98971.66;;;12.09;58.47
29467;BME280;60968;37.490;-122.288;2023-02-21T04:33:19;98969.84;;;12.12;56.55
29467;BME280;60968;37.490;-122.288;2023-02-21T04:36:20;98985.47;;;12.15;55.35
29467;BME280;60968;37.490;-122.288;2023-02-21T04:39:21;98976.38;;;12.32;53.86
29467;BME280;60968;37.490;-122.288;2023-02-21T04:42:22;98971.38;;;12.23;53.98
29467;BME280;60968;37.490;-122.288;2023-02-21T04:45:22;98966.31;;;12.13;53.72
29467;BME280;60968;37.490;-122.288;2023-02-21T04:48:24;98962.97;;;12.08;53.53
29467;BME280;60968;37.490;-122.288;2023-02-21T04:51:25;98953.47;;;12.04;54.68
29467;BME280;60968;37.490;-122.288;2023-02-21T04:54:26;98951.69;;;12.06;55.17
29467;BME280;60968;37.490;-122.288;2023-02-21T04:57:27;98958.50;;;12.13;54.81
29467;BME280;60968;37.490;-122.288;2023-02-21T05:00:28;98961.91;;;12.17;54.53
29467;BME280;60968;37.490;-122.288;2023-02-21T05:03:29;98957.53;;;12.17;53.54
29467;BME280;60968;37.490;-122.288;2023-02-21T05:06:30;98955.81;;;12.16;53.36
29467;BME280;60968;37.490;-122.288;2023-02-21T05:09:31;98953.28;;;12.13;53.16
29467;BME280;60968;37.490;-122.288;2023-02-21T05:12:32;98952.53;;;12.08;52.70
29467;BME280;60968;37.490;-122.288;2023-02-21T05:15:33;98930.88;;;12.03;52.46
29467;BME280;60968;37.490;-122.288;2023-02-21T05:18:34;98929.16;;;12.00;53.05
29467;BME280;60968;37.490;-122.288;2023-02-21T05:21:36;98921.41;;;11.97;51.84
29467;BME280;60968;37.490;-122.288;2023-02-21T05:24:40;98920.44;;;12.01;50.91
29467;BME280;60968;37.490;-122.288;2023-02-21T05:27:43;98922.53;;;12.25;50.25
29467;BME280;60968;37.490;-122.288;2023-02-21T05:30:44;98927.53;;;12.35;50.46
29467;BME280;60968;37.490;-122.288;2023-02-21T05:33:46;98927.34;;;12.45;49.85
29467;BME280;60968;37.490;-122.288;2023-02-21T05:36:47;98922.97;;;12.45;49.62
29467;BME280;60968;37.490;-122.288;2023-02-21T05:39:48;98923.75;;;12.49;49.50
29467;BME280;60968;37.490;-122.288;2023-02-21T05:42:48;98921.28;;;12.43;49.64
29467;BME280;60968;37.490;-122.288;2023-02-21T05:45:49;98916.13;;;12.40;49.63
29467;BME280;60968;37.490;-122.288;2023-02-21T05:48:51;98919.63;;;12.39;49.21
29467;BME280;60968;37.490;-122.288;2023-02-21T05:51:52;98905.72;;;12.38;50.04
29467;BME280;60968;37.490;-122.288;2023-02-21T05:54:53;98917.09;;;12.35;49.54
29467;BME280;60968;37.490;-122.288;2023-02-21T05:57:55;98924.09;;;12.35;49.86
29467;BME280;60968;37.490;-122.288;2023-02-21T06:00:56;98911.13;;;12.29;49.61
29467;BME280;60968;37.490;-122.288;2023-02-21T06:03:57;98912.91;;;12.28;49.38
29467;BME280;60968;37.490;-122.288;2023-02-21T06:06:58;98909.47;;;12.25;50.61
29467;BME280;60968;37.490;-122.288;2023-02-21T06:09:59;98908.88;;;12.13;51.31
29467;BME280;60968;37.490;-122.288;2023-02-21T06:13:00;98900.47;;;11.99;52.35
29467;BME280;60968;37.490;-122.288;2023-02-21T06:16:00;98904.09;;;11.92;51.88
29467;BME280;60968;37.490;-122.288;2023-02-21T06:19:04;98898.13;;;11.85;52.67
29467;BME280;60968;37.490;-122.288;2023-02-21T06:22:05;98899.13;;;11.79;52.34
29467;BME280;60968;37.490;-122.288;2023-02-21T06:25:07;98900.59;;;11.94;50.68
29467;BME280;60968;37.490;-122.288;2023-02-21T06:28:08;98899.50;;;12.05;51.07
29467;BME280;60968;37.490;-122.288;2023-02-21T06:31:09;98894.34;;;12.01;51.46
29467;BME280;60968;37.490;-122.288;2023-02-21T06:34:10;98896.91;;;12.03;50.92
29467;BME280;60968;37.490;-122.288;2023-02-21T06:37:11;98896.03;;;12.04;50.12
29467;BME280;60968;37.490;-122.288;2023-02-21T06:40:12;98891.78;;;12.00;50.50
29467;BME280;60968;37.490;-122.288;2023-02-21T06:43:12;98894.16;;;12.09;48.64
29467;BME280;60968;37.490;-122.288;2023-02-21T06:46:21;98891.28;;;12.22;48.57
29467;BME280;60968;37.490;-122.288;2023-02-21T06:49:22;98887.06;;;12.16;49.82
29467;BME280;60968;37.490;-122.288;2023-02-21T06:52:23;98878.75;;;11.98;50.58
29467;BME280;60968;37.490;-122.288;2023-02-21T06:55:24;98886.84;;;11.84;51.26
29467;BME280;60968;37.490;-122.288;2023-02-21T06:58:25;98874.94;;;11.71;52.27
29467;BME280;60968;37.490;-122.288;2023-02-21T07:01:27;98869.94;;;11.59;52.92
29467;BME280;60968;37.490;-122.288;2023-02-21T07:04:29;98863.22;;;11.48;52.99
29467;BME280;60968;37.490;-122.288;2023-02-21T07:07:31;98860.59;;;11.48;52.11
29467;BME280;60968;37.490;-122.288;2023-02-21T07:10:32;98864.94;;;11.49;52.34
29467;BME280;60968;37.490;-122.288;2023-02-21T07:13:33;98850.09;;;11.52;52.53
29467;BME280;60968;37.490;-122.288;2023-02-21T07:16:34;98845.72;;;11.54;53.52
29467;BME280;60968;37.490;-122.288;2023-02-21T07:19:35;98850.94;;;11.54;54.69
29467;BME280;60968;37.490;-122.288;2023-02-21T07:22:36;98843.22;;;11.49;54.19
29467;BME280;60968;37.490;-122.288;2023-02-21T07:25:37;98842.41;;;11.45;56.35
29467;BME280;60968;37.490;-122.288;2023-02-21T07:28:37;98841.53;;;11.46;57.42
29467;BME280;60968;37.490;-122.288;2023-02-21T07:31:38;98837.19;;;11.45;58.54
29467;BME280;60968;37.490;-122.288;2023-02-21T07:34:39;98838.97;;;11.43;58.92
29467;BME280;60968;37.490;-122.288;2023-02-21T07:37:41;98833.00;;;11.38;60.54
29467;BME280;60968;37.490;-122.288;2023-02-21T07:40:42;98825.34;;;11.29;60.93
29467;BME280;60968;37.490;-122.288;2023-02-21T07:43:43;98825.44;;;11.24;62.32
29467;BME280;60968;37.490;-122.288;2023-02-21T07:46:44;98819.56;;;11.14;62.85
29467;BME280;60968;37.490;-122.288;2023-02-21T07:49:45;98810.84;;;11.15;63.79
29467;BME280;60968;37.490;-122.288;2023-02-21T07:52:46;98801.44;;;11.08;65.51
29467;BME280;60968;37.490;-122.288;2023-02-21T07:55:50;98804.97;;;11.04;67.62
29467;BME280;60968;37.490;-122.288;2023-02-21T07:58:51;98797.22;;;10.99;68.78
29467;BME280;60968;37.490;-122.288;2023-02-21T08:01:52;98786.94;;;10.93;69.36
29467;BME280;60968;37.490;-122.288;2023-02-21T08:04:52;98786.13;;;10.90;70.18
29467;BME280;60968;37.490;-122.288;2023-02-21T08:07:53;98789.63;;;10.89;70.03
29467;BME280;60968;37.490;-122.288;2023-02-21T08:10:54;98785.19;;;10.92;69.61
29467;BME280;60968;37.490;-122.288;2023-02-21T08:13:55;98777.47;;;10.88;69.30
29467;BME280;60968;37.490;-122.288;2023-02-21T08:16:58;98762.72;;;10.87;69.54
29467;BME280;60968;37.490;-122.288;2023-02-21T08:19:59;98757.63;;;10.80;69.15
29467;BME280;60968;37.490;-122.288;2023-02-21T08:23:00;98753.25;;;10.82;69.14
29467;BME280;60968;37.490;-122.288;2023-02-21T08:26:04;98747.09;;;10.87;68.01
29467;BME280;60968;37.490;-122.288;2023-02-21T08:29:07;98746.19;;;10.88;67.89
29467;BME280;60968;37.490;-122.288;2023-02-21T08:32:11;98748.75;;;10.91;67.45
29467;BME280;60968;37.490;-122.288;2023-02-21T08:35:16;98740.09;;;10.89;67.00
29467;BME280;60968;37.490;-122.288;2023-02-21T08:38:17;98729.59;;;10.93;66.29
29467;BME280;60968;37.490;-122.288;2023-02-21T08:41:18;98724.31;;;10.96;65.77
29467;BME280;60968;37.490;-122.288;2023-02-21T08:44:19;98713.88;;;10.96;65.94
29467;BME280;60968;37.490;-122.288;2023-02-21T08:47:21;98709.53;;;10.95;65.90
29467;BME280;60968;37.490;-122.288;2023-02-21T08:50:25;98714.78;;;10.94;65.87
29467;BME280;60968;37.490;-122.288;2023-02-21T08:53:26;98695.63;;;10.96;65.37
29467;BME280;60968;37.490;-122.288;2023-02-21T08:56:27;98700.94;;;10.92;65.98
29467;BME280;60968;37.490;-122.288;2023-02-21T08:59:28;98694.06;;;10.88;66.00
29467;BME280;60968;37.490;-122.288;2023-02-21T09:02:29;98694.16;;;10.85;67.50
29467;BME280;60968;37.490;-122.288;2023-02-21T09:05:31;98695.16;;;10.77;67.16
29467;BME280;60968;37.490;-122.288;2023-02-21T09:08:32;98702.31;;;10.68;68.20
29467;BME280;60968;37.490;-122.288;2023-02-21T09:11:34;98700.50;;;10.70;66.37
29467;BME280;60968;37.490;-122.288;2023-02-21T09:14:36;98702.28;;;10.69;66.77
29467;BME280;60968;37.490;-122.288;2023-02-21T09:17:37;98708.34;;;10.68;66.31
29467;BME280;60968;37.490;-122.288;2023-02-21T09:20:38;98717.19;;;10.61;66.68
29467;BME280;60968;37.490;-122.288;2023-02-21T09:23:38;98715.53;;;10.57;66.31
29467;BME280;60968;37.490;-122.288;2023-02-21T09:26:39;98719.03;;;10.54;66.18
29467;BME280;60968;37.490;-122.288;2023-02-21T09:29:40;98719.06;;;10.53;66.15
29467;BME280;60968;37.490;-122.288;2023-02-21T09:32:41;98734.63;;;10.56;66.50
29467;BME280;60968;37.490;-122.288;2023-02-21T09:35:43;98729.50;;;10.53;67.14
29467;BME280;60968;37.490;-122.288;2023-02-21T09:38:43;98720.00;;;10.49;67.62
29467;BME280;60968;37.490;-122.288;2023-02-21T09:41:45;98710.63;;;10.40;68.68
29467;BME280;60968;37.490;-122.288;2023-02-21T09:44:47;98707.25;;;10.35;68.54
29467;BME280;60968;37.490;-122.288;2023-02-21T09:47:53;98705.50;;;10.35;67.67
29467;BME280;60968;37.490;-122.288;2023-02-21T09:50:59;98701.97;;;10.39;66.72
29467;BME280;60968;37.490;-122.288;2023-02-21T09:54:04;98677.53;;;10.46;64.61
29467;BME280;60968;37.490;-122.288;2023-02-21T09:57:10;98676.56;;;10.49;64.43
29467;BME280;60968;37.490;-122.288;2023-02-21T10:00:17;98673.16;;;10.47;64.75
29467;BME280;60968;37.490;-122.288;2023-02-21T10:06:49;98659.94;;;10.58;63.91
29467;BME280;60968;37.490;-122.288;2023-02-21T10:10:14;98667.63;;;10.64;63.59
29467;BME280;60968;37.490;-122.288;2023-02-21T10:16:44;98643.38;;;10.60;64.65
29467;BME280;60968;37.490;-122.288;2023-02-21T10:19:51;98645.19;;;10.57;64.53
29467;BME280;60968;37.490;-122.288;2023-02-21T10:22:54;98642.81;;;10.44;65.73
29467;BME280;60968;37.490;-122.288;2023-02-21T10:26:05;98634.31;;;10.33;66.22
29467;BME280;60968;37.490;-122.288;2023-02-21T10:30:05;98632.69;;;10.27;67.05
29467;BME280;60968;37.490;-122.288;2023-02-21T10:33:07;98621.59;;;10.18;67.30
29467;BME280;60968;37.490;-122.288;2023-02-21T10:36:16;98614.63;;;10.18;68.26
29467;BME280;60968;37.490;-122.288;2023-02-21T10:39:21;98595.75;;;10.07;69.32
29467;BME280;60968;37.490;-122.288;2023-02-21T10:42:33;98597.63;;;10.00;69.61
29467;BME280;60968;37.490;-122.288;2023-02-21T10:49:28;98589.03;;;9.95;70.33
29467;BME280;60968;37.490;-122.288;2023-02-21T10:52:49;98589.91;;;9.94;70.70
29467;BME280;60968;37.490;-122.288;2023-02-21T10:56:18;98590.03;;;9.88;70.92
29467;BME280;60968;37.490;-122.288;2023-02-21T10:59:29;98595.34;;;9.83;71.41
29467;BME280;60968;37.490;-122.288;2023-02-21T11:02:36;98591.09;;;9.77;71.67
29467;BME280;60968;37.490;-122.288;2023-02-21T11:05:38;98587.66;;;9.75;71.82
29467;BME280;60968;37.490;-122.288;2023-02-21T11:08:42;98572.88;;;9.77;70.69
29467;BME280;60968;37.490;-122.288;2023-02-21T11:11:43;98570.19;;;9.82;71.01
29467;BME280;60968;37.490;-122.288;2023-02-21T11:15:15;98566.69;;;9.85;70.31
29467;BME280;60968;37.490;-122.288;2023-02-21T11:18:35;98570.28;;;9.76;71.50
29467;BME280;60968;37.490;-122.288;2023-02-21T11:21:36;98554.03;;;9.63;72.25
29467;BME280;60968;37.490;-122.288;2023-02-21T11:24:50;98535.00;;;9.61;74.93
29467;BME280;60968;37.490;-122.288;2023-02-21T11:28:02;98530.81;;;9.54;76.22
29467;BME280;60968;37.490;-122.288;2023-02-21T11:31:10;98528.16;;;9.57;76.55
29467;BME280;60968;37.490;-122.288;2023-02-21T11:34:13;98519.38;;;9.63;75.47
29467;BME280;60968;37.490;-122.288;2023-02-21T11:37:15;98512.22;;;9.74;76.04
29467;BME280;60968;37.490;-122.288;2023-02-21T11:40:43;98517.25;;;9.85;75.72
29467;BME280;60968;37.490;-122.288;2023-02-21T11:43:46;98518.06;;;9.87;75.95
29467;BME280;60968;37.490;-122.288;2023-02-21T11:46:50;98516.31;;;9.89;76.88
29467;BME280;60968;37.490;-122.288;2023-02-21T11:50:23;98503.22;;;9.92;75.58
29467;BME280;60968;37.490;-122.288;2023-02-21T11:53:30;98496.28;;;9.91;74.66
29467;BME280;60968;37.490;-122.288;2023-02-21T12:00:10;98511.84;;;9.94;72.85
29467;BME280;60968;37.490;-122.288;2023-02-21T12:03:42;98513.63;;;9.92;72.04
29467;BME280;60968;37.490;-122.288;2023-02-21T12:14:01;98506.94;;;9.78;72.17
29467;BME280;60968;37.490;-122.288;2023-02-21T12:20:45;98508.03;;;9.67;74.79
29467;BME280;60968;37.490;-122.288;2023-02-21T12:33:27;98515.56;;;9.32;81.35
29467;BME280;60968;37.490;-122.288;2023-02-21T12:46:39;98485.84;;;8.96;90.16
29467;BME280;60968;37.490;-122.288;2023-02-21T12:53:05;98489.38;;;8.90;92.02
29467;BME280;60968;37.490;-122.288;2023-02-21T12:56:24;98488.53;;;8.89;92.21
29467;BME280;60968;37.490;-122.288;2023-02-21T12:59:54;98482.56;;;8.84;93.47
29467;BME280;60968;37.490;-122.288;2023-02-21T13:06:29;98480.97;;;8.75;92.92
29467;BME280;60968;37.490;-122.288;2023-02-21T13:09:39;98489.59;;;8.78;92.52
29467;BME280;60968;37.490;-122.288;2023-02-21T13:12:57;98491.28;;;8.80;92.27
29467;BME280;60968;37.490;-122.288;2023-02-21T13:16:03;98494.81;;;8.78;92.06
29467;BME280;60968;37.490;-122.288;2023-02-21T13:19:09;98499.94;;;8.81;92.11
29467;BME280;60968;37.490;-122.288;2023-02-21T13:28:57;98493.94;;;8.75;94.56
29467;BME280;60968;37.490;-122.288;2023-02-21T13:32:13;98492.22;;;8.74;96.55
29467;BME280;60968;37.490;-122.288;2023-02-21T13:35:19;98495.78;;;8.69;97.86
29467;BME280;60968;37.490;-122.288;2023-02-21T13:38:22;98484.59;;;8.65;99.78
29467;BME280;60968;37.490;-122.288;2023-02-21T13:41:28;98474.19;;;8.65;99.99
29467;BME280;60968;37.490;-122.288;2023-02-21T13:44:35;98453.47;;;8.62;99.30
29467;BME280;60968;37.490;-122.288;2023-02-21T13:51:04;98423.13;;;8.64;97.83
29467;BME280;60968;37.490;-122.288;2023-02-21T13:54:11;98437.84;;;8.65;97.52
29467;BME280;60968;37.490;-122.288;2023-02-21T13:57:35;98449.84;;;8.72;96.79
29467;BME280;60968;37.490;-122.288;2023-02-21T14:03:37;98451.59;;;8.70;96.04
29467;BME280;60968;37.490;-122.288;2023-02-21T14:06:38;98434.38;;;8.65;97.02
29467;BME280;60968;37.490;-122.288;2023-02-21T14:09:41;98450.09;;;8.57;99.36
29467;BME280;60968;37.490;-122.288;2023-02-21T14:12:44;98452.78;;;8.49;100.00
29467;BME280;60968;37.490;-122.288;2023-02-21T14:15:49;98455.53;;;8.38;100.00
29467;BME280;60968;37.490;-122.288;2023-02-21T14:19:05;98458.13;;;8.35;100.00
29467;BME280;60968;37.490;-122.288;2023-02-21T14:22:11;98466.00;;;8.29;100.00
29467;BME280;60968;37.490;-122.288;2023-02-21T14:25:17;98474.66;;;8.31;99.74
29467;BME280;60968;37.490;-122.288;2023-02-21T14:28:58;98483.22;;;8.36;99.82
29467;BME280;60968;37.490;-122.288;2023-02-21T14:38:28;98446.81;;;8.43;100.00
29467;BME280;60968;37.490;-122.288;2023-02-21T15:01:55;98436.81;;;8.15;100.00
29467;BME280;60968;37.490;-122.288;2023-02-21T15:05:15;98432.38;;;8.23;100.00
29467;BME280;60968;37.490;-122.288;2023-02-21T15:08:19;98423.50;;;8.38;100.00
29467;BME280;60968;37.490;-122.288;2023-02-21T15:11:30;98441.50;;;8.52;100.00
29467;BME280;60968;37.490;-122.288;2023-02-21T15:14:39;98427.50;;;8.61;99.34
29467;BME280;60968;37.490;-122.288;2023-02-21T15:17:41;98417.06;;;8.65;98.96
29467;BME280;60968;37.490;-122.288;2023-02-21T15:20:42;98416.06;;;8.74;99.30
29467;BME280;60968;37.490;-122.288;2023-02-21T15:23:45;98413.25;;;8.86;98.79
29467;BME280;60968;37.490;-122.288;2023-02-21T15:26:47;98412.25;;;8.95;98.83
29467;BME280;60968;37.490;-122.288;2023-02-21T15:30:06;98401.75;;;9.00;99.92
29467;BME280;60968;37.490;-122.288;2023-02-21T15:33:19;98401.63;;;9.07;100.00
29467;BME280;60968;37.490;-122.288;2023-02-21T15:36:21;98405.84;;;9.15;100.00
29467;BME280;60968;37.490;-122.288;2023-02-21T15:39:28;98407.28;;;9.31;99.23
29467;BME280;60968;37.490;-122.288;2023-02-21T15:42:31;98404.38;;;9.45;98.62
29467;BME280;60968;37.490;-122.288;2023-02-21T15:45:43;98409.25;;;9.64;97.64
29467;BME280;60968;37.490;-122.288;2023-02-21T15:48:46;98395.88;;;9.82;96.44
29467;BME280;60968;37.490;-122.288;2023-02-21T15:51:48;98375.53;;;10.00;94.18
29467;BME280;60968;37.490;-122.288;2023-02-21T15:54:49;98382.19;;;10.13;91.24
29467;BME280;60968;37.490;-122.288;2023-02-21T16:01:19;98387.28;;;10.57;87.57
29467;BME280;60968;37.490;-122.288;2023-02-21T16:04:21;98376.56;;;10.69;86.87
29467;BME280;60968;37.490;-122.288;2023-02-21T16:07:34;98376.28;;;10.81;84.93
29467;BME280;60968;37.490;-122.288;2023-02-21T16:10:36;98375.94;;;10.94;85.25
29467;BME280;60968;37.490;-122.288;2023-02-21T16:13:41;98376.59;;;11.02;85.42
29467;BME280;60968;37.490;-122.288;2023-02-21T16:16:42;98384.97;;;11.13;86.61
29467;BME280;60968;37.490;-122.288;2023-02-21T16:19:47;98394.16;;;11.28;87.05
29467;BME280;60968;37.490;-122.288;2023-02-21T16:22:50;98379.13;;;11.38;87.65
29467;BME280;60968;37.490;-122.288;2023-02-21T16:28:55;98377.63;;;11.61;88.86
29467;BME280;60968;37.490;-122.288;2023-02-21T16:31:56;98387.97;;;11.64;89.84
29467;BME280;60968;37.490;-122.288;2023-02-21T16:34:57;98385.16;;;11.72;90.26
29467;BME280;60968;37.490;-122.288;2023-02-21T16:37:59;98388.41;;;11.78;90.25
29467;BME280;60968;37.490;-122.288;2023-02-21T16:41:00;98374.53;;;11.78;90.12
29467;BME280;60968;37.490;-122.288;2023-02-21T16:44:01;98376.00;;;11.87;90.58
29467;BME280;60968;37.490;-122.288;2023-02-21T16:47:02;98375.78;;;11.96;90.70
29467;BME280;60968;37.490;-122.288;2023-02-21T16:50:19;98372.59;;;12.14;90.49
29467;BME280;60968;37.490;-122.288;2023-02-21T16:53:21;98375.97;;;12.18;89.76
29467;BME280;60968;37.490;-122.288;2023-02-21T16:56:23;98388.00;;;12.24;90.21
29467;BME280;60968;37.490;-122.288;2023-02-21T16:59:26;98375.50;;;12.33;89.54
29467;BME280;60968;37.490;-122.288;2023-02-21T17:02:27;98364.94;;;12.37;89.10
29467;BME280;60968;37.490;-122.288;2023-02-21T17:05:28;98357.69;;;12.46;87.14
29467;BME280;60968;37.490;-122.288;2023-02-21T17:08:29;98360.88;;;12.28;87.93
29467;BME280;60968;37.490;-122.288;2023-02-21T17:11:30;98351.41;;;12.52;86.29
29467;BME280;60968;37.490;-122.288;2023-02-21T17:14:31;98356.22;;;12.90;83.45
29467;BME280;60968;37.490;-122.288;2023-02-21T17:17:37;98336.56;;;15.88;66.88
29467;BME280;60968;37.490;-122.288;2023-02-21T17:20:38;98322.56;;;17.30;59.64
29467;BME280;60968;37.490;-122.288;2023-02-21T17:23:39;98317.41;;;16.76;59.89
29467;BME280;60968;37.490;-122.288;2023-02-21T17:26:40;98318.53;;;17.23;55.88
29467;BME280;60968;37.490;-122.288;2023-02-21T17:29:41;98312.31;;;18.84;50.30
29467;BME280;60968;37.490;-122.288;2023-02-21T17:32:45;98316.84;;;19.84;47.63
29467;BME280;60968;37.490;-122.288;2023-02-21T17:35:46;98318.78;;;19.95;48.13
29467;BME280;60968;37.490;-122.288;2023-02-21T17:38:47;98325.22;;;19.91;46.47
29467;BME280;60968;37.490;-122.288;2023-02-21T17:41:55;98316.28;;;19.22;48.03
29467;BME280;60968;37.490;-122.288;2023-02-21T17:44:56;98294.16;;;18.94;48.05
29467;BME280;60968;37.490;-122.288;2023-02-21T17:47:57;98302.13;;;19.51;46.12
29467;BME280;60968;37.490;-122.288;2023-02-21T17:50:58;98294.66;;;19.29;46.60
29467;BME280;60968;37.490;-122.288;2023-02-21T17:53:59;98302.69;;;19.28;46.66
29467;BME280;60968;37.490;-122.288;2023-02-21T17:57:00;98295.72;;;18.82;47.70